createdAt,value
2022-11-20T00:01:34.938Z,22.40
2022-11-20T00:04:05.013Z,17.20
2022-11-20T00:06:33.556Z,19.42
2022-11-20T00:09:02.636Z,20.17
2022-11-20T00:11:32.779Z,17.25
2022-11-20T00:14:03.525Z,17.05
2022-11-20T00:16:33.989Z,18.23
2022-11-20T00:19:02.519Z,20.13
2022-11-20T00:21:32.822Z,16.58
2022-11-20T00:24:01.320Z,21.27
2022-11-20T00:28:59.911Z,16.92
2022-11-20T00:31:29.106Z,15.52
2022-11-20T00:33:58.041Z,17.50
2022-11-20T00:36:28.273Z,19.67
2022-11-20T00:38:59.454Z,19.30
2022-11-20T00:41:29.274Z,18.02
2022-11-20T00:43:58.077Z,14.35
2022-11-20T00:46:28.306Z,9.68
2022-11-20T00:48:57.136Z,17.00
2022-11-20T00:51:27.109Z,17.60
2022-11-20T00:53:59.027Z,11.73
2022-11-20T00:56:27.881Z,19.10
2022-11-20T00:58:56.375Z,17.23
2022-11-20T01:01:26.683Z,24.02
2022-11-20T01:03:57.371Z,17.75
2022-11-20T01:06:27.557Z,14.73
2022-11-20T01:08:59.154Z,20.08
2022-11-20T01:11:29.542Z,15.68
2022-11-20T01:13:59.501Z,19.42
2022-11-20T01:16:30.187Z,15.77
2022-11-20T01:19:01.258Z,16.65
2022-11-20T01:21:31.788Z,17.63
2022-11-20T01:24:02.707Z,18.48
2022-11-20T01:26:33.175Z,17.33
2022-11-20T01:29:02.683Z,18.17
2022-11-20T01:31:32.754Z,19.63
2022-11-20T01:34:02.813Z,17.92
2022-11-20T01:36:32.743Z,17.77
2022-11-20T01:39:06.012Z,20.15
2022-11-20T01:41:53.777Z,14.65
2022-11-20T01:44:24.249Z,17.15
2022-11-20T01:46:59.976Z,21.52
2022-11-20T01:49:36.679Z,19.02
2022-11-20T01:52:09.751Z,18.90
2022-11-20T01:54:45.815Z,19.00
2022-11-20T01:57:16.139Z,17.65
2022-11-20T01:59:50.255Z,19.38
2022-11-20T02:02:22.302Z,17.23
2022-11-20T02:04:54.123Z,18.60
2022-11-20T02:07:23.336Z,20.10
2022-11-20T02:09:57.485Z,19.00
2022-11-20T02:12:44.597Z,17.75
2022-11-20T02:15:35.467Z,21.05
2022-11-20T02:18:04.161Z,17.40
2022-11-20T02:23:07.170Z,14.50
2022-11-20T02:25:39.204Z,16.10
2022-11-20T02:28:08.272Z,17.08
2022-11-20T02:30:36.670Z,17.08
2022-11-20T02:33:05.096Z,17.48
2022-11-20T02:35:47.393Z,23.83
2022-11-20T02:38:17.146Z,14.52
2022-11-20T02:40:54.087Z,14.85
2022-11-20T02:43:23.943Z,18.58
2022-11-20T02:45:52.364Z,17.13
2022-11-20T02:48:20.745Z,18.02
2022-11-20T02:50:49.142Z,14.13
2022-11-20T02:53:17.549Z,18.02
2022-11-20T02:55:47.356Z,15.55
2022-11-20T02:58:15.824Z,18.17
2022-11-20T03:00:44.222Z,15.10
2022-11-20T03:03:12.596Z,13.65
2022-11-20T03:05:41.038Z,13.27
2022-11-20T03:08:09.614Z,15.73
2022-11-20T03:13:07.645Z,14.68
2022-11-20T03:15:37.683Z,16.35
2022-11-20T03:18:06.541Z,15.32
2022-11-20T03:20:35.952Z,15.93
2022-11-20T03:23:05.006Z,18.63
2022-11-20T03:25:33.502Z,20.73
2022-11-20T03:28:01.867Z,15.75
2022-11-20T03:30:31.730Z,18.63
2022-11-20T03:33:00.233Z,17.70
2022-11-20T03:35:28.658Z,15.43
2022-11-20T03:37:57.178Z,19.70
2022-11-20T03:40:28.198Z,16.15
2022-11-20T03:42:57.028Z,17.95
2022-11-20T03:45:27.511Z,18.65
2022-11-20T03:47:57.371Z,16.83
2022-11-20T03:50:28.973Z,17.85
2022-11-20T03:52:57.393Z,19.00
2022-11-20T03:55:25.779Z,17.77
2022-11-20T03:57:54.290Z,21.98
2022-11-20T04:02:53.401Z,16.25
2022-11-20T04:05:23.337Z,17.35
2022-11-20T04:07:51.875Z,16.02
2022-11-20T04:10:20.425Z,16.20
2022-11-20T04:15:17.606Z,20.50
2022-11-20T04:17:45.965Z,20.42
2022-11-20T04:20:14.546Z,19.58
2022-11-20T04:22:44.470Z,20.40
2022-11-20T04:25:13.071Z,18.60
2022-11-20T04:30:10.786Z,17.63
2022-11-20T04:32:40.066Z,17.63
2022-11-20T04:35:08.973Z,19.70
2022-11-20T04:37:37.466Z,17.45
2022-11-20T04:40:08.498Z,22.88
2022-11-20T04:42:36.960Z,17.63
2022-11-20T04:45:05.801Z,19.65
2022-11-20T04:47:34.191Z,18.05
2022-11-20T04:50:02.616Z,17.63
2022-11-20T04:52:32.036Z,21.85
2022-11-20T04:55:00.553Z,17.00
2022-11-20T04:57:30.395Z,18.73
2022-11-20T04:59:58.958Z,18.45
2022-11-20T05:04:55.543Z,18.30
2022-11-20T05:07:24.060Z,20.85
2022-11-20T05:09:52.472Z,20.08
2022-11-20T05:12:20.948Z,23.52
2022-11-20T05:14:50.730Z,16.83
2022-11-20T05:17:19.259Z,20.98
2022-11-20T05:19:52.875Z,17.65
2022-11-20T05:22:21.669Z,20.70
2022-11-20T05:24:50.139Z,19.60
2022-11-20T05:27:18.612Z,19.45
2022-11-20T05:29:47.024Z,18.63
2022-11-20T05:32:16.923Z,20.77
2022-11-20T05:34:45.323Z,17.80
2022-11-20T05:37:13.699Z,21.15
2022-11-20T05:39:42.084Z,20.08
2022-11-20T05:42:28.131Z,19.02
2022-11-20T05:44:56.610Z,17.85
2022-11-20T05:47:26.671Z,18.98
2022-11-20T05:49:55.252Z,21.92
2022-11-20T05:52:23.812Z,22.20
2022-11-20T05:54:52.312Z,19.15
2022-11-20T05:57:20.725Z,17.92
2022-11-20T05:59:49.229Z,20.23
2022-11-20T06:02:17.807Z,16.80
2022-11-20T06:07:15.873Z,18.30
2022-11-20T06:09:44.330Z,20.42
2022-11-20T06:12:12.813Z,17.08
2022-11-20T06:14:41.224Z,17.65
2022-11-20T06:17:09.679Z,22.42
2022-11-20T06:19:38.154Z,19.08
2022-11-20T06:22:08.119Z,19.83
2022-11-20T06:24:36.613Z,18.23
2022-11-20T06:27:05.384Z,16.38
2022-11-20T06:29:34.294Z,16.77
2022-11-20T06:32:02.941Z,17.85
2022-11-20T06:36:59.547Z,21.40
2022-11-20T06:39:29.330Z,16.50
2022-11-20T06:41:59.218Z,18.27
2022-11-20T06:44:28.265Z,17.92
2022-11-20T06:46:56.667Z,20.45
2022-11-20T06:49:26.256Z,17.35
2022-11-20T06:51:54.877Z,19.48
2022-11-20T06:54:23.930Z,18.13
2022-11-20T06:56:53.704Z,18.35
2022-11-20T06:59:22.643Z,20.88
2022-11-20T07:01:51.558Z,18.73
2022-11-20T07:04:19.986Z,36.45
2022-11-20T07:06:48.432Z,18.88
2022-11-20T07:09:17.459Z,20.98
2022-11-20T07:11:45.877Z,16.80
2022-11-20T07:14:15.797Z,21.38
2022-11-20T07:16:44.390Z,16.40
2022-11-20T07:21:41.086Z,15.88
2022-11-20T07:24:09.590Z,17.52
2022-11-20T07:26:38.063Z,17.40
2022-11-20T07:29:06.762Z,15.15
2022-11-20T07:31:36.828Z,15.70
2022-11-20T07:34:05.812Z,19.25
2022-11-20T07:36:34.265Z,15.65
2022-11-20T07:39:02.915Z,18.13
2022-11-20T07:44:01.447Z,18.23
2022-11-20T07:46:30.022Z,18.08
2022-11-20T07:48:59.904Z,20.15
2022-11-20T07:51:28.486Z,15.73
2022-11-20T07:56:57.190Z,16.40
2022-11-20T07:59:26.214Z,18.58
2022-11-20T08:01:55.958Z,16.50
2022-11-20T08:04:26.040Z,16.33
2022-11-20T08:06:54.718Z,18.83
2022-11-20T08:09:23.458Z,21.85
2022-11-20T08:12:28.828Z,19.63
2022-11-20T08:15:41.246Z,19.73
2022-11-20T08:18:33.401Z,21.42
2022-11-20T08:21:06.262Z,24.02
2022-11-20T08:23:34.887Z,22.27
2022-11-20T08:28:31.469Z,16.17
2022-11-20T08:31:03.623Z,21.00
2022-11-20T08:33:33.703Z,19.52
2022-11-20T08:36:03.210Z,19.38
2022-11-20T08:38:33.783Z,20.13
2022-11-20T08:41:20.497Z,18.40
2022-11-20T08:43:49.005Z,16.02
2022-11-20T08:46:17.465Z,17.27
2022-11-20T08:48:46.500Z,19.40
2022-11-20T08:51:15.595Z,17.48
2022-11-20T08:53:45.608Z,19.63
2022-11-20T08:56:14.478Z,21.05
2022-11-20T08:59:10.324Z,17.73
2022-11-20T09:01:31.861Z,17.67
2022-11-20T09:04:00.993Z,20.23
2022-11-20T09:06:29.636Z,17.50
2022-11-20T09:09:03.503Z,17.40
2022-11-20T09:11:34.917Z,20.50
2022-11-20T09:16:32.394Z,19.27
2022-11-20T09:19:34.060Z,20.52
2022-11-20T09:21:49.648Z,20.63
2022-11-20T09:26:55.466Z,19.17
2022-11-20T09:29:25.281Z,20.00
2022-11-20T09:31:53.928Z,17.13
2022-11-20T09:36:50.725Z,20.65
2022-11-20T09:39:21.594Z,18.95
2022-11-20T09:42:05.774Z,23.10
2022-11-20T09:45:11.152Z,20.17
2022-11-20T09:47:52.845Z,19.80
2022-11-20T09:50:32.042Z,22.50
2022-11-20T09:53:16.120Z,19.15
2022-11-20T09:55:49.294Z,25.95
2022-11-20T09:58:30.509Z,25.98
2022-11-20T10:01:03.185Z,19.58
2022-11-20T10:03:42.939Z,21.17
2022-11-20T10:06:15.960Z,18.88
2022-11-20T10:08:47.597Z,21.75
2022-11-20T10:11:27.746Z,25.02
2022-11-20T10:14:09.444Z,30.83
2022-11-20T10:16:48.757Z,22.48
2022-11-20T10:19:33.141Z,24.30
2022-11-20T10:22:12.181Z,22.45
2022-11-20T10:24:47.073Z,22.25
2022-11-20T10:27:35.061Z,23.08
2022-11-20T10:30:05.888Z,22.75
2022-11-20T10:32:40.037Z,22.67
2022-11-20T10:35:21.312Z,27.38
2022-11-20T10:37:55.635Z,23.65
2022-11-20T10:40:34.886Z,25.05
2022-11-20T10:43:14.432Z,27.08
2022-11-20T10:45:53.317Z,24.52
2022-11-20T10:48:24.625Z,24.38
2022-11-20T10:51:06.157Z,24.60
2022-11-20T10:53:47.756Z,28.55
2022-11-20T10:56:22.532Z,31.17
2022-11-20T10:59:03.306Z,28.15
2022-11-20T11:01:31.847Z,31.63
2022-11-20T11:04:01.203Z,25.95
2022-11-20T11:06:37.685Z,30.75
2022-11-20T11:09:14.154Z,29.05
2022-11-20T11:11:42.662Z,29.25
2022-11-20T11:14:16.408Z,31.15
2022-11-20T11:16:53.043Z,31.90
2022-11-20T11:19:22.148Z,30.65
2022-11-20T11:21:55.842Z,35.00
2022-11-20T11:24:41.652Z,26.33
2022-11-20T11:27:17.528Z,33.55
2022-11-20T11:29:47.941Z,36.45
2022-11-20T11:32:18.291Z,30.65
2022-11-20T11:34:47.181Z,41.85
2022-11-20T11:37:22.632Z,33.33
2022-11-20T11:40:03.957Z,36.83
2022-11-20T11:42:45.069Z,34.13
2022-11-20T11:45:18.455Z,34.15
2022-11-20T11:47:49.806Z,31.15
2022-11-20T11:50:22.245Z,37.50
2022-11-20T11:52:58.791Z,41.08
2022-11-20T11:55:36.000Z,40.10
2022-11-20T11:58:16.744Z,34.05
2022-11-20T12:00:57.788Z,40.65
2022-11-20T12:03:31.731Z,37.00
2022-11-20T12:06:05.198Z,36.33
2022-11-20T12:08:39.666Z,37.17
2022-11-20T12:11:15.890Z,34.95
2022-11-20T12:13:51.037Z,41.63
2022-11-20T12:16:22.883Z,38.60
2022-11-20T12:18:54.461Z,42.03
2022-11-20T12:21:30.599Z,37.15
2022-11-20T12:24:17.996Z,38.72
2022-11-20T12:26:58.993Z,35.90
2022-11-20T12:29:37.692Z,31.52
2022-11-20T12:32:33.857Z,35.55
2022-11-20T12:35:13.780Z,29.42
2022-11-20T12:37:54.525Z,28.02
2022-11-20T12:40:35.387Z,30.05
2022-11-20T12:43:30.802Z,34.17
2022-11-20T12:46:15.895Z,35.38
2022-11-20T12:49:06.029Z,39.70
2022-11-20T12:51:50.767Z,31.63
2022-11-20T12:54:44.525Z,41.20
2022-11-20T12:57:20.801Z,28.65
2022-11-20T13:00:15.027Z,34.30
2022-11-20T13:03:15.000Z,37.72
2022-11-20T13:06:02.454Z,33.08
2022-11-20T13:08:35.199Z,39.22
2022-11-20T13:11:12.426Z,35.72
2022-11-20T13:13:50.103Z,40.72
2022-11-20T13:16:27.250Z,35.90
2022-11-20T13:18:56.059Z,42.30
2022-11-20T13:21:38.983Z,37.05
2022-11-20T13:24:08.317Z,32.60
2022-11-20T13:26:36.920Z,35.58
2022-11-20T13:31:39.579Z,33.92
2022-11-20T13:34:16.104Z,35.22
2022-11-20T13:36:54.363Z,39.42
2022-11-20T13:39:29.723Z,34.95
2022-11-20T13:41:59.443Z,37.67
2022-11-20T13:44:32.026Z,43.58
2022-11-20T13:47:09.905Z,45.42
2022-11-20T13:49:45.351Z,43.97
2022-11-20T13:52:42.093Z,43.63
2022-11-20T13:55:44.988Z,52.47
2022-11-20T13:58:38.550Z,49.88
2022-11-20T14:01:17.641Z,48.08
2022-11-20T14:06:47.334Z,47.75
2022-11-20T14:09:29.006Z,48.08
2022-11-20T14:11:58.312Z,52.47
2022-11-20T14:14:28.592Z,51.13
2022-11-20T14:17:08.345Z,50.40
2022-11-20T14:19:38.266Z,55.40
2022-11-20T14:22:13.313Z,56.05
2022-11-20T14:24:43.367Z,51.72
2022-11-20T14:27:16.779Z,50.38
2022-11-20T14:29:47.062Z,48.22
2022-11-20T14:32:18.619Z,43.90
2022-11-20T14:34:49.500Z,53.40
2022-11-20T14:37:22.868Z,44.22
2022-11-20T14:39:55.357Z,41.22
2022-11-20T14:42:26.231Z,47.33
2022-11-20T14:44:57.765Z,49.38
2022-11-20T14:47:29.210Z,43.70
2022-11-20T14:49:59.524Z,58.35
2022-11-20T14:52:29.538Z,47.05
2022-11-20T14:55:01.156Z,44.45
2022-11-20T14:57:34.316Z,55.65
2022-11-20T15:00:18.183Z,71.10
2022-11-20T15:02:51.527Z,61.70
2022-11-20T15:05:21.833Z,59.72
2022-11-20T15:07:52.167Z,54.90
2022-11-20T15:10:27.387Z,61.63
2022-11-20T15:12:58.035Z,52.03
2022-11-20T15:15:32.399Z,58.47
2022-11-20T15:18:01.699Z,58.75
2022-11-20T15:20:33.195Z,52.28
2022-11-20T15:23:01.930Z,49.20
2022-11-20T15:28:00.323Z,56.85
2022-11-20T15:30:28.704Z,51.70
2022-11-20T15:32:57.135Z,59.83
2022-11-20T15:35:25.678Z,45.35
2022-11-20T15:37:54.647Z,55.45
2022-11-20T15:40:23.026Z,49.78
2022-11-20T15:43:09.929Z,52.15
2022-11-20T15:45:44.007Z,42.33
2022-11-20T15:48:16.585Z,50.15
2022-11-20T15:50:53.145Z,47.88
2022-11-20T15:53:21.788Z,54.63
2022-11-20T15:55:50.451Z,47.40
2022-11-20T16:00:49.947Z,59.17
2022-11-20T16:03:19.995Z,53.67
2022-11-20T16:05:49.090Z,49.75
2022-11-20T16:08:18.678Z,49.75
2022-11-20T16:10:54.677Z,51.13
2022-11-20T16:13:42.315Z,50.75
2022-11-20T16:16:20.925Z,52.80
2022-11-20T16:18:49.594Z,52.65
2022-11-20T16:21:18.383Z,46.90
2022-11-20T16:23:46.839Z,48.10
2022-11-20T16:26:16.962Z,42.60
2022-11-20T16:28:47.103Z,53.97
2022-11-20T16:31:17.690Z,54.08
2022-11-20T16:33:52.043Z,54.42
2022-11-20T16:36:22.394Z,47.75
2022-11-20T16:38:54.737Z,50.63
2022-11-20T16:41:23.374Z,53.28
2022-11-20T16:43:55.018Z,62.67
2022-11-20T16:46:24.854Z,59.70
2022-11-20T16:48:57.616Z,58.28
2022-11-20T16:51:27.233Z,56.92
2022-11-20T16:53:56.468Z,52.50
2022-11-20T16:56:26.832Z,74.05
2022-11-20T16:58:58.649Z,55.63
2022-11-20T17:01:29.212Z,48.58
2022-11-20T17:03:59.489Z,52.20
2022-11-20T17:06:30.061Z,53.30
2022-11-20T17:08:59.553Z,54.15
2022-11-20T17:11:28.897Z,54.63
2022-11-20T17:14:00.661Z,47.85
2022-11-20T17:16:29.573Z,49.55
2022-11-20T17:19:03.408Z,58.63
2022-11-20T17:21:33.056Z,52.45
2022-11-20T17:24:03.719Z,48.97
2022-11-20T17:26:32.218Z,46.65
2022-11-20T17:29:03.865Z,49.30
2022-11-20T17:31:34.884Z,45.30
2022-11-20T17:34:03.673Z,52.80
2022-11-20T17:44:00.354Z,44.45
2022-11-20T17:46:32.878Z,54.78
2022-11-20T17:49:02.307Z,55.60
2022-11-20T17:51:32.219Z,53.97
2022-11-20T17:54:03.013Z,58.65
2022-11-20T17:56:53.767Z,57.00
2022-11-20T17:59:24.239Z,59.50
2022-11-20T18:01:55.553Z,57.70
2022-11-20T18:04:26.387Z,63.35
2022-11-20T18:06:54.983Z,57.17
2022-11-20T18:09:23.417Z,60.08
2022-11-20T18:11:52.015Z,60.22
2022-11-20T18:17:06.658Z,45.97
2022-11-20T18:19:41.130Z,59.30
2022-11-20T18:22:17.605Z,46.55
2022-11-20T18:24:46.375Z,55.28
2022-11-20T18:29:46.610Z,47.85
2022-11-20T18:32:16.644Z,56.22
2022-11-20T18:34:45.150Z,53.55
2022-11-20T18:37:15.661Z,52.42
2022-11-20T18:39:46.538Z,44.72
2022-11-20T18:42:34.286Z,55.83
2022-11-20T18:45:04.593Z,49.58
2022-11-20T18:47:38.099Z,46.58
2022-11-20T18:50:08.717Z,54.13
2022-11-20T18:52:44.672Z,54.22
2022-11-20T18:55:14.210Z,49.72
2022-11-20T18:57:42.683Z,54.55
2022-11-20T19:00:12.209Z,48.15
2022-11-20T19:02:43.630Z,52.45
2022-11-20T19:05:12.897Z,50.55
2022-11-20T19:07:41.649Z,59.70
2022-11-20T19:10:10.758Z,63.72
2022-11-20T19:12:39.213Z,61.45
2022-11-20T19:15:08.451Z,56.80
2022-11-20T19:17:37.001Z,60.67
2022-11-20T19:20:07.809Z,41.53
2022-11-20T19:22:36.251Z,47.42
2022-11-20T19:25:05.203Z,51.00
2022-11-20T19:27:33.746Z,46.45
2022-11-20T19:30:03.778Z,48.33
2022-11-20T19:32:35.423Z,51.83
2022-11-20T19:35:04.814Z,54.30
2022-11-20T19:37:36.085Z,54.45
2022-11-20T19:40:05.579Z,43.50
2022-11-20T19:42:34.163Z,46.78
2022-11-20T19:45:02.619Z,49.53
2022-11-20T19:48:05.910Z,53.00
2022-11-20T19:50:21.706Z,39.97
2022-11-20T19:52:57.236Z,36.00
2022-11-20T19:55:27.391Z,38.20
2022-11-20T19:57:58.419Z,45.22
2022-11-20T20:00:32.305Z,38.92
2022-11-20T20:03:01.322Z,48.67
2022-11-20T20:05:29.801Z,46.20
2022-11-20T20:10:29.615Z,30.38
2022-11-20T20:12:58.420Z,46.25
2022-11-20T20:15:27.245Z,47.15
2022-11-20T20:17:56.173Z,46.40
2022-11-20T20:20:25.015Z,47.65
2022-11-20T20:22:53.508Z,38.67
2022-11-20T20:25:23.336Z,41.85
2022-11-20T20:27:51.779Z,42.13
2022-11-20T20:30:20.288Z,41.13
2022-11-20T20:35:24.600Z,34.78
2022-11-20T20:40:22.725Z,38.97
2022-11-20T20:42:51.181Z,47.97
2022-11-20T20:45:19.555Z,43.85
2022-11-20T20:47:47.998Z,46.40
2022-11-20T20:50:16.769Z,49.33
2022-11-20T20:52:45.848Z,43.40
2022-11-20T20:55:14.348Z,41.13
2022-11-20T21:00:13.086Z,45.22
2022-11-20T21:02:41.577Z,37.55
2022-11-20T21:05:10.999Z,42.72
2022-11-20T21:07:59.571Z,46.63
2022-11-20T21:10:28.186Z,44.55
2022-11-20T21:12:58.112Z,35.72
2022-11-20T21:15:26.572Z,42.30
2022-11-20T21:17:55.046Z,38.80
2022-11-20T21:20:41.304Z,43.60
2022-11-20T21:23:11.096Z,47.28
2022-11-20T21:25:40.401Z,39.72
2022-11-20T21:28:14.369Z,40.50
2022-11-20T21:30:45.851Z,38.40
2022-11-20T21:33:14.529Z,45.15
2022-11-20T21:38:11.106Z,41.03
2022-11-20T21:40:39.501Z,32.83
2022-11-20T21:43:09.359Z,41.90
2022-11-20T21:45:37.922Z,36.10
2022-11-20T21:48:07.199Z,36.75
2022-11-20T21:50:36.260Z,38.35
2022-11-20T21:53:04.751Z,38.08
2022-11-20T21:55:33.220Z,34.90
2022-11-20T21:58:01.630Z,35.33
2022-11-20T22:00:31.613Z,36.38
2022-11-20T22:03:00.133Z,37.13
2022-11-20T22:05:28.561Z,34.83
2022-11-20T22:07:57.030Z,35.42
2022-11-20T22:10:25.703Z,34.90
2022-11-20T22:15:59.943Z,36.90
2022-11-20T22:18:29.642Z,36.42
2022-11-20T22:20:58.123Z,41.95
2022-11-20T22:23:26.769Z,30.63
2022-11-20T22:28:23.457Z,34.95
2022-11-20T22:30:53.276Z,33.70
2022-11-20T22:33:21.692Z,33.83
2022-11-20T22:35:50.196Z,41.22
2022-11-20T22:38:18.711Z,36.58
2022-11-20T22:40:48.648Z,34.90
2022-11-20T22:43:17.221Z,35.60
2022-11-20T22:45:46.620Z,43.63
2022-11-20T22:48:16.485Z,31.95
2022-11-20T22:50:45.318Z,30.25
2022-11-20T22:53:13.755Z,38.80
2022-11-20T22:55:42.152Z,33.22
2022-11-20T22:58:10.504Z,39.03
2022-11-20T23:00:38.938Z,40.03
2022-11-20T23:03:07.405Z,33.28
2022-11-20T23:05:37.178Z,37.10
2022-11-20T23:08:06.002Z,37.88
2022-11-20T23:10:34.442Z,39.10
2022-11-20T23:13:02.858Z,32.47
2022-11-20T23:15:31.319Z,36.67
2022-11-20T23:17:59.783Z,31.10
2022-11-20T23:20:28.179Z,35.75
2022-11-20T23:22:57.963Z,36.13
2022-11-20T23:25:26.411Z,37.75
2022-11-20T23:27:55.465Z,40.35
2022-11-20T23:30:23.857Z,33.67
2022-11-20T23:32:52.285Z,33.58
2022-11-20T23:35:20.806Z,29.63
2022-11-20T23:40:18.962Z,28.92
2022-11-20T23:43:01.217Z,27.73
2022-11-20T23:45:29.723Z,29.95
2022-11-20T23:47:58.694Z,25.23
2022-11-20T23:50:27.063Z,29.10
2022-11-20T23:52:55.472Z,27.63
2022-11-20T23:55:25.319Z,31.80
2022-11-20T23:57:53.788Z,26.50
